sensor_id;sensor_type;location;lat;lon;timestamp;temperature;humidity
54898;DHT22;40800;52.704;6.398;2022-12-07T00:00:52;4.10;99.90
54898;DHT22;40800;52.704;6.398;2022-12-07T00:03:17;3.80;99.90
54898;DHT22;40800;52.704;6.398;2022-12-07T00:05:43;4.00;99.90
54898;DHT22;40800;52.704;6.398;2022-12-07T00:08:09;3.90;99.90
54898;DHT22;40800;52.704;6.398;2022-12-07T00:10:34;3.90;99.90
54898;DHT22;40800;52.704;6.398;2022-12-07T00:13:00;3.40;99.90
54898;DHT22;40800;52.704;6.398;2022-12-07T00:15:25;3.80;99.90
54898;DHT22;40800;52.704;6.398;2022-12-07T00:17:51;3.30;99.90
54898;DHT22;40800;52.704;6.398;2022-12-07T00:20:16;3.10;99.90
54898;DHT22;40800;52.704;6.398;2022-12-07T00:22:42;3.70;99.90
54898;DHT22;40800;52.704;6.398;2022-12-07T00:25:08;3.60;99.90
54898;DHT22;40800;52.704;6.398;2022-12-07T00:27:33;3.30;99.90
54898;DHT22;40800;52.704;6.398;2022-12-07T00:29:59;3.20;99.90
54898;DHT22;40800;52.704;6.398;2022-12-07T00:32:24;3.80;99.90
54898;DHT22;40800;52.704;6.398;2022-12-07T00:34:50;3.60;99.90
54898;DHT22;40800;52.704;6.398;2022-12-07T00:37:15;3.80;99.90
54898;DHT22;40800;52.704;6.398;2022-12-07T00:39:41;3.60;99.90
54898;DHT22;40800;52.704;6.398;2022-12-07T00:42:07;3.40;99.90
54898;DHT22;40800;52.704;6.398;2022-12-07T00:44:32;3.90;99.90
54898;DHT22;40800;52.704;6.398;2022-12-07T00:46:58;3.80;99.90
54898;DHT22;40800;52.704;6.398;2022-12-07T00:49:23;3.90;99.90
54898;DHT22;40800;52.704;6.398;2022-12-07T00:51:49;3.80;99.90
54898;DHT22;40800;52.704;6.398;2022-12-07T00:54:15;3.30;99.90
54898;DHT22;40800;52.704;6.398;2022-12-07T00:56:40;3.80;99.90
54898;DHT22;40800;52.704;6.398;2022-12-07T00:59:06;3.50;99.90
54898;DHT22;40800;52.704;6.398;2022-12-07T01:01:35;3.30;99.90
54898;DHT22;40800;52.704;6.398;2022-12-07T01:04:02;3.30;99.90
54898;DHT22;40800;52.704;6.398;2022-12-07T01:06:28;3.70;99.90
54898;DHT22;40800;52.704;6.398;2022-12-07T01:08:55;3.40;99.90
54898;DHT22;40800;52.704;6.398;2022-12-07T01:11:23;3.80;99.90
54898;DHT22;40800;52.704;6.398;2022-12-07T01:13:54;3.80;99.90
54898;DHT22;40800;52.704;6.398;2022-12-07T01:16:21;3.50;99.90
54898;DHT22;40800;52.704;6.398;2022-12-07T01:18:49;3.50;99.90
54898;DHT22;40800;52.704;6.398;2022-12-07T01:21:26;3.50;99.90
54898;DHT22;40800;52.704;6.398;2022-12-07T01:23:52;3.50;99.90
54898;DHT22;40800;52.704;6.398;2022-12-07T01:26:20;3.20;99.90
54898;DHT22;40800;52.704;6.398;2022-12-07T01:28:46;3.10;99.90
54898;DHT22;40800;52.704;6.398;2022-12-07T01:31:17;3.30;99.90
54898;DHT22;40800;52.704;6.398;2022-12-07T01:33:44;3.10;99.90
54898;DHT22;40800;52.704;6.398;2022-12-07T01:36:19;3.60;99.90
54898;DHT22;40800;52.704;6.398;2022-12-07T01:38:46;3.50;99.90
54898;DHT22;40800;52.704;6.398;2022-12-07T01:41:13;3.30;99.90
54898;DHT22;40800;52.704;6.398;2022-12-07T01:46:48;3.40;99.90
54898;DHT22;40800;52.704;6.398;2022-12-07T01:49:28;3.40;99.90
54898;DHT22;40800;52.704;6.398;2022-12-07T01:52:23;3.00;99.90
54898;DHT22;40800;52.704;6.398;2022-12-07T01:54:54;3.30;99.90
54898;DHT22;40800;52.704;6.398;2022-12-07T01:57:22;2.90;99.90
54898;DHT22;40800;52.704;6.398;2022-12-07T01:59:49;3.40;99.90
54898;DHT22;40800;52.704;6.398;2022-12-07T02:02:33;3.30;99.90
54898;DHT22;40800;52.704;6.398;2022-12-07T02:05:02;2.70;99.90
54898;DHT22;40800;52.704;6.398;2022-12-07T02:07:29;2.80;99.90
54898;DHT22;40800;52.704;6.398;2022-12-07T02:09:56;2.80;99.90
54898;DHT22;40800;52.704;6.398;2022-12-07T02:12:23;3.20;99.90
54898;DHT22;40800;52.704;6.398;2022-12-07T02:14:50;2.70;99.90
54898;DHT22;40800;52.704;6.398;2022-12-07T02:17:34;2.70;99.90
54898;DHT22;40800;52.704;6.398;2022-12-07T02:20:44;3.10;99.90
54898;DHT22;40800;52.704;6.398;2022-12-07T02:26:23;3.20;99.90
54898;DHT22;40800;52.704;6.398;2022-12-07T02:31:59;3.00;99.90
54898;DHT22;40800;52.704;6.398;2022-12-07T02:34:49;3.10;99.90
54898;DHT22;40800;52.704;6.398;2022-12-07T02:40:15;2.40;99.90
54898;DHT22;40800;52.704;6.398;2022-12-07T02:42:48;2.60;99.90
54898;DHT22;40800;52.704;6.398;2022-12-07T02:45:20;2.60;99.90
54898;DHT22;40800;52.704;6.398;2022-12-07T02:47:50;3.20;99.90
54898;DHT22;40800;52.704;6.398;2022-12-07T02:50:21;2.70;99.90
54898;DHT22;40800;52.704;6.398;2022-12-07T02:52:47;2.90;99.90
54898;DHT22;40800;52.704;6.398;2022-12-07T02:55:15;2.60;99.90
54898;DHT22;40800;52.704;6.398;2022-12-07T03:03:40;2.90;99.90
54898;DHT22;40800;52.704;6.398;2022-12-07T03:06:18;3.20;99.90
54898;DHT22;40800;52.704;6.398;2022-12-07T03:08:56;2.70;99.90
54898;DHT22;40800;52.704;6.398;2022-12-07T03:11:25;3.20;99.90
54898;DHT22;40800;52.704;6.398;2022-12-07T03:19:43;3.30;99.90
54898;DHT22;40800;52.704;6.398;2022-12-07T03:22:12;3.30;99.90
54898;DHT22;40800;52.704;6.398;2022-12-07T03:24:50;3.10;99.90
54898;DHT22;40800;52.704;6.398;2022-12-07T03:27:24;3.20;99.90
54898;DHT22;40800;52.704;6.398;2022-12-07T03:30:07;3.10;99.90
54898;DHT22;40800;52.704;6.398;2022-12-07T03:35:38;3.50;99.90
54898;DHT22;40800;52.704;6.398;2022-12-07T03:38:20;3.00;99.90
54898;DHT22;40800;52.704;6.398;2022-12-07T03:43:12;3.40;99.90
54898;DHT22;40800;52.704;6.398;2022-12-07T03:45:41;3.00;99.90
54898;DHT22;40800;52.704;6.398;2022-12-07T03:50:52;3.30;99.90
54898;DHT22;40800;52.704;6.398;2022-12-07T03:53:36;2.90;99.90
54898;DHT22;40800;52.704;6.398;2022-12-07T03:56:05;2.90;99.90
54898;DHT22;40800;52.704;6.398;2022-12-07T03:58:31;2.90;99.90
54898;DHT22;40800;52.704;6.398;2022-12-07T04:00:57;2.90;99.90
54898;DHT22;40800;52.704;6.398;2022-12-07T04:03:23;2.70;99.90
54898;DHT22;40800;52.704;6.398;2022-12-07T04:05:49;2.90;99.90
54898;DHT22;40800;52.704;6.398;2022-12-07T04:08:14;3.40;99.90
54898;DHT22;40800;52.704;6.398;2022-12-07T04:10:40;3.00;99.90
54898;DHT22;40800;52.704;6.398;2022-12-07T04:13:05;3.10;99.90
54898;DHT22;40800;52.704;6.398;2022-12-07T04:15:31;3.40;99.90
54898;DHT22;40800;52.704;6.398;2022-12-07T04:17:57;3.00;99.90
54898;DHT22;40800;52.704;6.398;2022-12-07T04:20:22;2.80;99.90
54898;DHT22;40800;52.704;6.398;2022-12-07T04:22:48;2.80;99.90
54898;DHT22;40800;52.704;6.398;2022-12-07T04:25:13;2.70;99.90
54898;DHT22;40800;52.704;6.398;2022-12-07T04:27:39;2.70;99.90
54898;DHT22;40800;52.704;6.398;2022-12-07T04:30:05;3.20;99.90
54898;DHT22;40800;52.704;6.398;2022-12-07T04:32:31;3.20;99.90
54898;DHT22;40800;52.704;6.398;2022-12-07T04:34:56;2.60;99.90
54898;DHT22;40800;52.704;6.398;2022-12-07T04:37:22;2.60;99.90
54898;DHT22;40800;52.704;6.398;2022-12-07T04:39:49;2.60;99.90
54898;DHT22;40800;52.704;6.398;2022-12-07T04:42:15;3.00;99.90
54898;DHT22;40800;52.704;6.398;2022-12-07T04:44:41;2.80;99.90
54898;DHT22;40800;52.704;6.398;2022-12-07T04:47:06;2.90;99.90
54898;DHT22;40800;52.704;6.398;2022-12-07T04:49:32;2.70;99.90
54898;DHT22;40800;52.704;6.398;2022-12-07T04:51:58;2.60;99.90
54898;DHT22;40800;52.704;6.398;2022-12-07T04:54:23;2.40;99.90
54898;DHT22;40800;52.704;6.398;2022-12-07T04:56:49;2.60;99.90
54898;DHT22;40800;52.704;6.398;2022-12-07T04:59:15;2.90;99.90
54898;DHT22;40800;52.704;6.398;2022-12-07T05:01:41;2.80;99.90
54898;DHT22;40800;52.704;6.398;2022-12-07T05:04:08;2.50;99.90
54898;DHT22;40800;52.704;6.398;2022-12-07T05:06:34;2.40;99.90
54898;DHT22;40800;52.704;6.398;2022-12-07T05:08:59;2.80;99.90
54898;DHT22;40800;52.704;6.398;2022-12-07T05:11:25;2.80;99.90
54898;DHT22;40800;52.704;6.398;2022-12-07T05:14:15;2.70;99.90
54898;DHT22;40800;52.704;6.398;2022-12-07T05:16:41;2.90;99.90
54898;DHT22;40800;52.704;6.398;2022-12-07T05:19:08;2.70;99.90
54898;DHT22;40800;52.704;6.398;2022-12-07T05:21:34;2.90;99.90
54898;DHT22;40800;52.704;6.398;2022-12-07T05:24:00;2.90;99.90
54898;DHT22;40800;52.704;6.398;2022-12-07T05:26:26;2.70;99.90
54898;DHT22;40800;52.704;6.398;2022-12-07T05:28:55;2.50;99.90
54898;DHT22;40800;52.704;6.398;2022-12-07T05:31:22;2.30;99.90
54898;DHT22;40800;52.704;6.398;2022-12-07T05:33:48;2.20;99.90
54898;DHT22;40800;52.704;6.398;2022-12-07T05:36:13;2.20;99.90
54898;DHT22;40800;52.704;6.398;2022-12-07T05:38:39;2.70;99.90
54898;DHT22;40800;52.704;6.398;2022-12-07T05:41:07;2.10;99.90
54898;DHT22;40800;52.704;6.398;2022-12-07T05:43:33;2.20;99.90
54898;DHT22;40800;52.704;6.398;2022-12-07T05:45:59;2.60;99.90
54898;DHT22;40800;52.704;6.398;2022-12-07T05:48:25;2.00;99.90
54898;DHT22;40800;52.704;6.398;2022-12-07T05:50:52;2.40;99.90
54898;DHT22;40800;52.704;6.398;2022-12-07T05:53:17;2.10;99.90
54898;DHT22;40800;52.704;6.398;2022-12-07T05:55:43;2.20;99.90
54898;DHT22;40800;52.704;6.398;2022-12-07T05:58:09;2.00;99.90
54898;DHT22;40800;52.704;6.398;2022-12-07T06:00:56;2.40;99.90
54898;DHT22;40800;52.704;6.398;2022-12-07T06:03:22;2.10;99.90
54898;DHT22;40800;52.704;6.398;2022-12-07T06:05:48;2.60;99.90
54898;DHT22;40800;52.704;6.398;2022-12-07T06:08:14;2.60;99.90
54898;DHT22;40800;52.704;6.398;2022-12-07T06:10:41;2.60;99.90
54898;DHT22;40800;52.704;6.398;2022-12-07T06:13:08;2.40;99.90
54898;DHT22;40800;52.704;6.398;2022-12-07T06:15:36;2.20;99.90
54898;DHT22;40800;52.704;6.398;2022-12-07T06:18:01;2.70;99.90
54898;DHT22;40800;52.704;6.398;2022-12-07T06:20:27;2.40;99.90
54898;DHT22;40800;52.704;6.398;2022-12-07T06:22:52;2.20;99.90
54898;DHT22;40800;52.704;6.398;2022-12-07T06:25:18;2.30;99.90
54898;DHT22;40800;52.704;6.398;2022-12-07T06:27:43;2.60;99.90
54898;DHT22;40800;52.704;6.398;2022-12-07T06:30:09;2.30;99.90
54898;DHT22;40800;52.704;6.398;2022-12-07T06:32:36;2.30;99.90
54898;DHT22;40800;52.704;6.398;2022-12-07T06:35:02;2.80;99.90
54898;DHT22;40800;52.704;6.398;2022-12-07T06:37:28;2.50;99.90
54898;DHT22;40800;52.704;6.398;2022-12-07T06:39:53;2.50;99.90
54898;DHT22;40800;52.704;6.398;2022-12-07T06:42:19;2.70;99.90
54898;DHT22;40800;52.704;6.398;2022-12-07T06:44:44;2.70;99.90
54898;DHT22;40800;52.704;6.398;2022-12-07T06:47:10;3.20;99.90
54898;DHT22;40800;52.704;6.398;2022-12-07T06:49:37;2.70;99.90
54898;DHT22;40800;52.704;6.398;2022-12-07T06:52:03;3.10;99.90
54898;DHT22;40800;52.704;6.398;2022-12-07T06:54:30;2.60;99.90
54898;DHT22;40800;52.704;6.398;2022-12-07T06:56:55;3.10;99.90
54898;DHT22;40800;52.704;6.398;2022-12-07T06:59:21;3.30;99.90
54898;DHT22;40800;52.704;6.398;2022-12-07T07:01:46;3.00;99.90
54898;DHT22;40800;52.704;6.398;2022-12-07T07:04:12;2.90;99.90
54898;DHT22;40800;52.704;6.398;2022-12-07T07:06:38;2.60;99.90
54898;DHT22;40800;52.704;6.398;2022-12-07T07:09:03;2.50;99.90
54898;DHT22;40800;52.704;6.398;2022-12-07T07:11:29;3.10;99.90
54898;DHT22;40800;52.704;6.398;2022-12-07T07:13:54;3.10;99.90
54898;DHT22;40800;52.704;6.398;2022-12-07T07:16:23;2.70;99.90
54898;DHT22;40800;52.704;6.398;2022-12-07T07:18:49;2.80;99.90
54898;DHT22;40800;52.704;6.398;2022-12-07T07:21:14;2.40;99.90
54898;DHT22;40800;52.704;6.398;2022-12-07T07:23:40;2.90;99.90
54898;DHT22;40800;52.704;6.398;2022-12-07T07:26:06;3.00;99.90
54898;DHT22;40800;52.704;6.398;2022-12-07T07:28:31;2.90;99.90
54898;DHT22;40800;52.704;6.398;2022-12-07T07:30:57;2.90;99.90
54898;DHT22;40800;52.704;6.398;2022-12-07T07:33:22;2.90;99.90
54898;DHT22;40800;52.704;6.398;2022-12-07T07:35:48;2.80;99.90
54898;DHT22;40800;52.704;6.398;2022-12-07T07:38:13;2.50;99.90
54898;DHT22;40800;52.704;6.398;2022-12-07T07:40:39;2.40;99.90
54898;DHT22;40800;52.704;6.398;2022-12-07T07:43:05;2.90;99.90
54898;DHT22;40800;52.704;6.398;2022-12-07T07:45:31;2.30;99.90
54898;DHT22;40800;52.704;6.398;2022-12-07T07:47:57;2.60;99.90
54898;DHT22;40800;52.704;6.398;2022-12-07T07:50:22;2.50;99.90
54898;DHT22;40800;52.704;6.398;2022-12-07T07:52:48;2.80;99.90
54898;DHT22;40800;52.704;6.398;2022-12-07T07:55:14;2.90;99.90
54898;DHT22;40800;52.704;6.398;2022-12-07T07:57:40;3.20;99.90
54898;DHT22;40800;52.704;6.398;2022-12-07T08:00:08;2.60;99.90
54898;DHT22;40800;52.704;6.398;2022-12-07T08:02:34;2.50;99.90
54898;DHT22;40800;52.704;6.398;2022-12-07T08:05:00;2.60;99.90
54898;DHT22;40800;52.704;6.398;2022-12-07T08:07:27;2.60;99.90
54898;DHT22;40800;52.704;6.398;2022-12-07T08:09:53;2.60;99.90
54898;DHT22;40800;52.704;6.398;2022-12-07T08:12:19;2.70;99.90
54898;DHT22;40800;52.704;6.398;2022-12-07T08:14:45;2.90;99.90
54898;DHT22;40800;52.704;6.398;2022-12-07T08:17:10;2.80;99.90
54898;DHT22;40800;52.704;6.398;2022-12-07T08:19:36;3.40;99.90
54898;DHT22;40800;52.704;6.398;2022-12-07T08:22:02;2.90;99.90
54898;DHT22;40800;52.704;6.398;2022-12-07T08:24:27;3.30;99.90
54898;DHT22;40800;52.704;6.398;2022-12-07T08:26:53;3.10;99.90
54898;DHT22;40800;52.704;6.398;2022-12-07T08:29:19;2.60;99.90
54898;DHT22;40800;52.704;6.398;2022-12-07T08:31:46;2.60;99.90
54898;DHT22;40800;52.704;6.398;2022-12-07T08:34:12;3.10;99.90
54898;DHT22;40800;52.704;6.398;2022-12-07T08:36:37;2.50;99.90
54898;DHT22;40800;52.704;6.398;2022-12-07T08:39:03;2.40;99.90
54898;DHT22;40800;52.704;6.398;2022-12-07T08:41:29;2.50;99.90
54898;DHT22;40800;52.704;6.398;2022-12-07T08:43:54;2.50;99.90
54898;DHT22;40800;52.704;6.398;2022-12-07T08:46:25;3.00;99.90
54898;DHT22;40800;52.704;6.398;2022-12-07T08:49:09;2.60;99.90
54898;DHT22;40800;52.704;6.398;2022-12-07T08:51:36;2.80;99.90
54898;DHT22;40800;52.704;6.398;2022-12-07T08:54:04;2.70;99.90
54898;DHT22;40800;52.704;6.398;2022-12-07T08:56:30;2.70;99.90
54898;DHT22;40800;52.704;6.398;2022-12-07T08:58:57;2.90;99.90
54898;DHT22;40800;52.704;6.398;2022-12-07T09:01:23;3.40;99.90
54898;DHT22;40800;52.704;6.398;2022-12-07T09:03:48;3.10;99.90
54898;DHT22;40800;52.704;6.398;2022-12-07T09:06:14;3.50;99.90
54898;DHT22;40800;52.704;6.398;2022-12-07T09:08:42;3.20;99.90
54898;DHT22;40800;52.704;6.398;2022-12-07T09:11:09;3.90;99.90
54898;DHT22;40800;52.704;6.398;2022-12-07T09:13:35;3.90;99.90
54898;DHT22;40800;52.704;6.398;2022-12-07T09:16:00;4.00;99.90
54898;DHT22;40800;52.704;6.398;2022-12-07T09:18:26;3.50;99.90
54898;DHT22;40800;52.704;6.398;2022-12-07T09:20:52;4.10;99.90
54898;DHT22;40800;52.704;6.398;2022-12-07T09:23:18;3.50;99.90
54898;DHT22;40800;52.704;6.398;2022-12-07T09:25:43;3.50;99.90
54898;DHT22;40800;52.704;6.398;2022-12-07T09:28:09;3.60;99.90
54898;DHT22;40800;52.704;6.398;2022-12-07T09:30:35;4.00;99.90
54898;DHT22;40800;52.704;6.398;2022-12-07T09:33:01;3.80;99.90
54898;DHT22;40800;52.704;6.398;2022-12-07T09:35:26;3.80;99.90
54898;DHT22;40800;52.704;6.398;2022-12-07T09:37:52;4.50;99.90
54898;DHT22;40800;52.704;6.398;2022-12-07T09:40:20;3.90;99.90
54898;DHT22;40800;52.704;6.398;2022-12-07T09:42:49;4.40;99.90
54898;DHT22;40800;52.704;6.398;2022-12-07T09:45:21;4.40;99.90
54898;DHT22;40800;52.704;6.398;2022-12-07T09:47:47;4.60;99.90
54898;DHT22;40800;52.704;6.398;2022-12-07T09:50:16;4.90;99.90
54898;DHT22;40800;52.704;6.398;2022-12-07T09:52:45;4.80;99.90
54898;DHT22;40800;52.704;6.398;2022-12-07T09:55:16;5.30;99.90
54898;DHT22;40800;52.704;6.398;2022-12-07T09:57:43;5.10;99.90
54898;DHT22;40800;52.704;6.398;2022-12-07T10:00:17;4.90;99.90
54898;DHT22;40800;52.704;6.398;2022-12-07T10:02:47;4.80;99.90
54898;DHT22;40800;52.704;6.398;2022-12-07T10:05:18;5.10;99.90
54898;DHT22;40800;52.704;6.398;2022-12-07T10:07:45;5.00;99.90
54898;DHT22;40800;52.704;6.398;2022-12-07T10:10:17;5.30;99.90
54898;DHT22;40800;52.704;6.398;2022-12-07T10:13:01;5.00;99.90
54898;DHT22;40800;52.704;6.398;2022-12-07T10:15:50;4.80;99.90
54898;DHT22;40800;52.704;6.398;2022-12-07T10:21:13;5.10;99.90
54898;DHT22;40800;52.704;6.398;2022-12-07T10:27:00;4.70;99.90
54898;DHT22;40800;52.704;6.398;2022-12-07T10:29:37;4.70;99.90
54898;DHT22;40800;52.704;6.398;2022-12-07T10:32:25;4.60;99.90
54898;DHT22;40800;52.704;6.398;2022-12-07T10:34:51;4.60;99.90
54898;DHT22;40800;52.704;6.398;2022-12-07T10:37:40;4.80;99.90
54898;DHT22;40800;52.704;6.398;2022-12-07T10:40:33;5.00;99.90
54898;DHT22;40800;52.704;6.398;2022-12-07T10:43:18;5.10;99.90
54898;DHT22;40800;52.704;6.398;2022-12-07T10:51:57;6.00;99.90
54898;DHT22;40800;52.704;6.398;2022-12-07T10:54:51;6.40;99.90
54898;DHT22;40800;52.704;6.398;2022-12-07T11:02:52;5.70;99.90
54898;DHT22;40800;52.704;6.398;2022-12-07T11:11:19;5.80;99.90
54898;DHT22;40800;52.704;6.398;2022-12-07T11:19:48;5.50;99.90
54898;DHT22;40800;52.704;6.398;2022-12-07T11:22:26;5.70;99.90
54898;DHT22;40800;52.704;6.398;2022-12-07T11:25:03;5.40;99.90
54898;DHT22;40800;52.704;6.398;2022-12-07T11:27:55;5.70;99.90
54898;DHT22;40800;52.704;6.398;2022-12-07T11:30:47;5.40;99.90
54898;DHT22;40800;52.704;6.398;2022-12-07T11:39:02;5.80;99.90
54898;DHT22;40800;52.704;6.398;2022-12-07T11:41:36;5.70;99.90
54898;DHT22;40800;52.704;6.398;2022-12-07T11:44:24;5.90;99.90
54898;DHT22;40800;52.704;6.398;2022-12-07T11:47:16;5.80;99.90
54898;DHT22;40800;52.704;6.398;2022-12-07T11:49:47;5.90;99.90
54898;DHT22;40800;52.704;6.398;2022-12-07T11:55:18;6.00;99.90
54898;DHT22;40800;52.704;6.398;2022-12-07T11:57:50;5.90;99.90
54898;DHT22;40800;52.704;6.398;2022-12-07T12:00:17;5.70;99.90
54898;DHT22;40800;52.704;6.398;2022-12-07T12:02:55;5.90;99.90
54898;DHT22;40800;52.704;6.398;2022-12-07T12:05:24;5.80;99.90
54898;DHT22;40800;52.704;6.398;2022-12-07T12:08:15;5.90;99.90
54898;DHT22;40800;52.704;6.398;2022-12-07T12:16:44;5.90;99.90
54898;DHT22;40800;52.704;6.398;2022-12-07T12:21:49;6.30;99.90
54898;DHT22;40800;52.704;6.398;2022-12-07T12:24:23;6.30;99.90
54898;DHT22;40800;52.704;6.398;2022-12-07T12:27:07;6.50;99.90
54898;DHT22;40800;52.704;6.398;2022-12-07T12:29:38;6.60;99.90
54898;DHT22;40800;52.704;6.398;2022-12-07T12:45:30;7.40;99.90
54898;DHT22;40800;52.704;6.398;2022-12-07T12:48:03;7.20;99.90
54898;DHT22;40800;52.704;6.398;2022-12-07T12:50:40;7.20;99.90
54898;DHT22;40800;52.704;6.398;2022-12-07T12:53:16;7.10;99.90
54898;DHT22;40800;52.704;6.398;2022-12-07T13:03:55;6.60;99.90
54898;DHT22;40800;52.704;6.398;2022-12-07T13:08:51;6.60;99.90
54898;DHT22;40800;52.704;6.398;2022-12-07T13:11:20;6.70;99.90
54898;DHT22;40800;52.704;6.398;2022-12-07T13:13:50;6.50;99.90
54898;DHT22;40800;52.704;6.398;2022-12-07T13:16:36;6.60;99.90
54898;DHT22;40800;52.704;6.398;2022-12-07T13:19:01;6.60;99.90
54898;DHT22;40800;52.704;6.398;2022-12-07T13:23:58;6.40;99.90
54898;DHT22;40800;52.704;6.398;2022-12-07T13:29:14;6.40;99.90
54898;DHT22;40800;52.704;6.398;2022-12-07T13:31:55;6.50;99.90
54898;DHT22;40800;52.704;6.398;2022-12-07T13:34:34;6.60;99.90
54898;DHT22;40800;52.704;6.398;2022-12-07T13:39:45;6.70;99.90
54898;DHT22;40800;52.704;6.398;2022-12-07T13:42:28;6.60;99.90
54898;DHT22;40800;52.704;6.398;2022-12-07T13:44:55;6.50;99.90
54898;DHT22;40800;52.704;6.398;2022-12-07T13:47:35;6.50;99.90
54898;DHT22;40800;52.704;6.398;2022-12-07T13:50:21;6.40;99.90
54898;DHT22;40800;52.704;6.398;2022-12-07T13:52:47;6.40;99.90
54898;DHT22;40800;52.704;6.398;2022-12-07T13:55:16;6.30;99.90
54898;DHT22;40800;52.704;6.398;2022-12-07T13:57:44;6.30;99.90
54898;DHT22;40800;52.704;6.398;2022-12-07T14:00:19;6.30;99.90
54898;DHT22;40800;52.704;6.398;2022-12-07T14:02:56;6.10;99.90
54898;DHT22;40800;52.704;6.398;2022-12-07T14:05:28;6.00;99.90
54898;DHT22;40800;52.704;6.398;2022-12-07T14:08:02;6.00;99.90
54898;DHT22;40800;52.704;6.398;2022-12-07T14:10:36;6.00;99.90
54898;DHT22;40800;52.704;6.398;2022-12-07T14:13:17;5.80;99.90
54898;DHT22;40800;52.704;6.398;2022-12-07T14:15:50;5.80;99.90
54898;DHT22;40800;52.704;6.398;2022-12-07T14:18:36;5.70;99.90
54898;DHT22;40800;52.704;6.398;2022-12-07T14:23:34;5.60;99.90
54898;DHT22;40800;52.704;6.398;2022-12-07T14:26:14;5.60;99.90
54898;DHT22;40800;52.704;6.398;2022-12-07T14:28:41;5.50;99.90
54898;DHT22;40800;52.704;6.398;2022-12-07T14:31:12;5.50;99.90
54898;DHT22;40800;52.704;6.398;2022-12-07T14:33:39;5.50;99.90
54898;DHT22;40800;52.704;6.398;2022-12-07T14:36:05;5.50;99.90
54898;DHT22;40800;52.704;6.398;2022-12-07T14:38:31;5.30;99.90
54898;DHT22;40800;52.704;6.398;2022-12-07T14:40:57;5.20;99.90
54898;DHT22;40800;52.704;6.398;2022-12-07T14:43:42;5.00;99.90
54898;DHT22;40800;52.704;6.398;2022-12-07T14:46:09;4.80;99.90
54898;DHT22;40800;52.704;6.398;2022-12-07T14:48:34;4.90;99.90
54898;DHT22;40800;52.704;6.398;2022-12-07T14:51:00;5.00;99.90
54898;DHT22;40800;52.704;6.398;2022-12-07T14:53:35;4.70;99.90
54898;DHT22;40800;52.704;6.398;2022-12-07T14:56:03;4.80;99.90
54898;DHT22;40800;52.704;6.398;2022-12-07T14:58:30;5.00;99.90
54898;DHT22;40800;52.704;6.398;2022-12-07T15:00:56;4.90;99.90
54898;DHT22;40800;52.704;6.398;2022-12-07T15:03:21;4.90;99.90
54898;DHT22;40800;52.704;6.398;2022-12-07T15:05:47;4.70;99.90
54898;DHT22;40800;52.704;6.398;2022-12-07T15:08:13;5.00;99.90
54898;DHT22;40800;52.704;6.398;2022-12-07T15:10:39;4.80;99.90
54898;DHT22;40800;52.704;6.398;2022-12-07T15:13:06;4.90;99.90
54898;DHT22;40800;52.704;6.398;2022-12-07T15:15:52;4.70;99.90
54898;DHT22;40800;52.704;6.398;2022-12-07T15:18:19;4.90;99.90
54898;DHT22;40800;52.704;6.398;2022-12-07T15:20:45;4.60;99.90
54898;DHT22;40800;52.704;6.398;2022-12-07T15:23:11;4.80;99.90
54898;DHT22;40800;52.704;6.398;2022-12-07T15:25:40;4.90;99.90
54898;DHT22;40800;52.704;6.398;2022-12-07T15:28:06;4.70;99.90
54898;DHT22;40800;52.704;6.398;2022-12-07T15:30:31;4.90;99.90
54898;DHT22;40800;52.704;6.398;2022-12-07T15:32:57;4.80;99.90
54898;DHT22;40800;52.704;6.398;2022-12-07T15:35:22;4.50;99.90
54898;DHT22;40800;52.704;6.398;2022-12-07T15:37:48;4.60;99.90
54898;DHT22;40800;52.704;6.398;2022-12-07T15:40:14;4.70;99.90
54898;DHT22;40800;52.704;6.398;2022-12-07T15:42:40;4.50;99.90
54898;DHT22;40800;52.704;6.398;2022-12-07T15:45:07;4.70;99.90
54898;DHT22;40800;52.704;6.398;2022-12-07T15:47:41;4.50;99.90
54898;DHT22;40800;52.704;6.398;2022-12-07T15:50:10;4.50;99.90
54898;DHT22;40800;52.704;6.398;2022-12-07T15:52:36;4.30;99.90
54898;DHT22;40800;52.704;6.398;2022-12-07T15:55:03;4.20;99.90
54898;DHT22;40800;52.704;6.398;2022-12-07T15:57:30;4.20;99.90
54898;DHT22;40800;52.704;6.398;2022-12-07T15:59:56;4.40;99.90
54898;DHT22;40800;52.704;6.398;2022-12-07T16:02:21;4.00;99.90
54898;DHT22;40800;52.704;6.398;2022-12-07T16:04:48;4.00;99.90
54898;DHT22;40800;52.704;6.398;2022-12-07T16:07:13;4.00;99.90
54898;DHT22;40800;52.704;6.398;2022-12-07T16:09:41;3.70;99.90
54898;DHT22;40800;52.704;6.398;2022-12-07T16:12:08;3.80;99.90
54898;DHT22;40800;52.704;6.398;2022-12-07T16:14:33;3.90;99.90
54898;DHT22;40800;52.704;6.398;2022-12-07T16:16:59;3.60;99.90
54898;DHT22;40800;52.704;6.398;2022-12-07T16:19:25;3.90;99.90
54898;DHT22;40800;52.704;6.398;2022-12-07T16:21:50;3.70;99.90
54898;DHT22;40800;52.704;6.398;2022-12-07T16:24:16;3.50;99.90
54898;DHT22;40800;52.704;6.398;2022-12-07T16:26:43;3.60;99.90
54898;DHT22;40800;52.704;6.398;2022-12-07T16:29:13;3.40;99.90
54898;DHT22;40800;52.704;6.398;2022-12-07T16:31:40;3.40;99.90
54898;DHT22;40800;52.704;6.398;2022-12-07T16:34:07;3.30;99.90
54898;DHT22;40800;52.704;6.398;2022-12-07T16:36:32;3.60;99.90
54898;DHT22;40800;52.704;6.398;2022-12-07T16:38:59;3.60;99.90
54898;DHT22;40800;52.704;6.398;2022-12-07T16:41:24;3.40;99.90
54898;DHT22;40800;52.704;6.398;2022-12-07T16:43:50;3.40;99.90
54898;DHT22;40800;52.704;6.398;2022-12-07T16:46:16;3.60;99.90
54898;DHT22;40800;52.704;6.398;2022-12-07T16:48:42;3.50;99.90
54898;DHT22;40800;52.704;6.398;2022-12-07T16:51:10;3.90;99.90
54898;DHT22;40800;52.704;6.398;2022-12-07T16:53:37;4.00;99.90
54898;DHT22;40800;52.704;6.398;2022-12-07T16:56:03;3.60;99.90
54898;DHT22;40800;52.704;6.398;2022-12-07T16:58:30;3.80;99.90
54898;DHT22;40800;52.704;6.398;2022-12-07T17:00:56;3.70;99.90
54898;DHT22;40800;52.704;6.398;2022-12-07T17:03:22;3.70;99.90
54898;DHT22;40800;52.704;6.398;2022-12-07T17:05:47;4.10;99.90
54898;DHT22;40800;52.704;6.398;2022-12-07T17:08:14;3.80;99.90
54898;DHT22;40800;52.704;6.398;2022-12-07T17:10:43;4.10;99.90
54898;DHT22;40800;52.704;6.398;2022-12-07T17:13:09;3.90;99.90
54898;DHT22;40800;52.704;6.398;2022-12-07T17:16:02;3.80;99.90
54898;DHT22;40800;52.704;6.398;2022-12-07T17:18:30;3.70;99.90
54898;DHT22;40800;52.704;6.398;2022-12-07T17:21:04;3.60;99.90
54898;DHT22;40800;52.704;6.398;2022-12-07T17:23:31;3.60;99.90
54898;DHT22;40800;52.704;6.398;2022-12-07T17:26:07;3.90;99.90
54898;DHT22;40800;52.704;6.398;2022-12-07T17:28:34;3.80;99.90
54898;DHT22;40800;52.704;6.398;2022-12-07T17:31:00;3.40;99.90
54898;DHT22;40800;52.704;6.398;2022-12-07T17:33:26;3.40;99.90
54898;DHT22;40800;52.704;6.398;2022-12-07T17:35:51;3.60;99.90
54898;DHT22;40800;52.704;6.398;2022-12-07T17:38:17;3.50;99.90
54898;DHT22;40800;52.704;6.398;2022-12-07T17:40:42;3.30;99.90
54898;DHT22;40800;52.704;6.398;2022-12-07T17:43:08;3.60;99.90
54898;DHT22;40800;52.704;6.398;2022-12-07T17:45:35;3.20;99.90
54898;DHT22;40800;52.704;6.398;2022-12-07T17:48:00;3.10;99.90
54898;DHT22;40800;52.704;6.398;2022-12-07T17:50:26;3.50;99.90